Terminal Aerodrome Forecast
Issued by NWS Burlington, VT

Home | Current Version | Previous Version | Text Only | Print | Product List | Glossary On
Versions: 1 2 3 4 5 6 7 8 9 10 11 12 13 14 15 16
128
FTUS41 KBTV 241736
TAFBTV
TAF
KBTV 241736Z 2418/2518 VRB03KT P6SM BKN130
     FM251300 14007KT P6SM OVC140
     FM251600 13009G20KT P6SM VCSH OVC090=

USA.gov is the U.S. government's official web portal to all federal, state and local government web resources and services.